NSZ278Y LPPT-ESSA
Flight info
| Callsign | NSZ278Y |
|---|---|
| Flight time | N/A |
| Altitude | 34000 |
| Route | IXIDA DCT PINOX DCT TOSDI DCT ZMR DCT NUBLO DCT RONSI DCT DELOG DCT PEXOD DCT DIDIG DCT USODA DCT ERCUT DCT DITAL UN873 BAZOS DCT BELDI DCT VEKIN DCT ADUTO/N0442F350 DCT VICOT DCT ALASA DCT MIKNA N851 PELUP Z226 NILUG |
| Aircraft | B38M/M-SDE1FGHILORVWXY/HB1 |
Departure
| Time | N/A |
|---|---|
| Airport | Lisbon Humberto Delgado Airport (LPPT) |
Arrival
| Time | 2026-05-03 21:10 |
|---|---|
| Airport | Stockholm-Arlanda Airport (ESSA) |
| Time | Latitude | Longitude | Altitude | Speed | Heading |
|---|---|---|---|---|---|
| 2026-05-03 20:15 | 55.49723 | 11.15783 | 34853 ft | 509 kts | 45° |
| 2026-05-03 20:15 | 55.54640 | 11.24591 | 34857 ft | 504 kts | 45° |
| 2026-05-03 20:16 | 55.59542 | 11.33409 | 34857 ft | 503 kts | 45° |
| 2026-05-03 20:16 | 55.64441 | 11.42254 | 34849 ft | 503 kts | 45° |
| 2026-05-03 20:17 | 55.69334 | 11.51122 | 34852 ft | 503 kts | 45° |
| 2026-05-03 20:17 | 55.74219 | 11.60010 | 34854 ft | 503 kts | 45° |
| 2026-05-03 20:18 | 55.79112 | 11.68944 | 34855 ft | 507 kts | 45° |
| 2026-05-03 20:18 | 55.84028 | 11.77957 | 34863 ft | 508 kts | 45° |
| 2026-05-03 20:19 | 55.88950 | 11.86985 | 34854 ft | 508 kts | 45° |
| 2026-05-03 20:19 | 55.93906 | 11.95970 | 34836 ft | 508 kts | 45° |
| 2026-05-03 20:20 | 55.98835 | 12.04951 | 34874 ft | 505 kts | 45° |
| 2026-05-03 20:20 | 56.03761 | 12.13960 | 34863 ft | 507 kts | 45° |
| 2026-05-03 20:21 | 56.08691 | 12.23012 | 34857 ft | 507 kts | 45° |
| 2026-05-03 20:21 | 56.13612 | 12.32085 | 34859 ft | 508 kts | 45° |
| 2026-05-03 20:22 | 56.18527 | 12.41181 | 34860 ft | 508 kts | 45° |
| 2026-05-03 20:22 | 56.23436 | 12.50300 | 34878 ft | 509 kts | 45° |
| 2026-05-03 20:23 | 56.28351 | 12.59468 | 34847 ft | 509 kts | 45° |
| 2026-05-03 20:23 | 56.33263 | 12.68666 | 34860 ft | 509 kts | 45° |
| 2026-05-03 20:24 | 56.38165 | 12.77882 | 34853 ft | 508 kts | 45° |
| 2026-05-03 20:24 | 56.43041 | 12.87086 | 34857 ft | 506 kts | 45° |
| 2026-05-03 20:25 | 56.47915 | 12.96322 | 34858 ft | 509 kts | 45° |
| 2026-05-03 20:25 | 56.52793 | 13.05603 | 34875 ft | 509 kts | 45° |
| 2026-05-03 20:26 | 56.57631 | 13.14844 | 34865 ft | 509 kts | 45° |
| 2026-05-03 20:26 | 56.62497 | 13.24177 | 34872 ft | 509 kts | 45° |
| 2026-05-03 20:27 | 56.67353 | 13.33527 | 34893 ft | 509 kts | 45° |
| 2026-05-03 20:27 | 56.72223 | 13.42943 | 34878 ft | 512 kts | 45° |
| 2026-05-03 20:28 | 56.77093 | 13.52396 | 34877 ft | 512 kts | 45° |
| 2026-05-03 20:28 | 56.81942 | 13.61847 | 34880 ft | 506 kts | 45° |
| 2026-05-03 20:29 | 56.86720 | 13.71198 | 34875 ft | 502 kts | 45° |
| 2026-05-03 20:29 | 56.91486 | 13.80563 | 34881 ft | 504 kts | 45° |
| 2026-05-03 20:30 | 56.96261 | 13.89982 | 34880 ft | 505 kts | 45° |
| 2026-05-03 20:30 | 57.01031 | 13.99431 | 34879 ft | 505 kts | 45° |
| 2026-05-03 20:31 | 57.05795 | 14.08908 | 34870 ft | 505 kts | 45° |
| 2026-05-03 20:31 | 57.10549 | 14.18400 | 34866 ft | 505 kts | 45° |
| 2026-05-03 20:32 | 57.15307 | 14.27939 | 34869 ft | 507 kts | 45° |
| 2026-05-03 20:32 | 57.20054 | 14.37497 | 34865 ft | 508 kts | 45° |
| 2026-05-03 20:33 | 57.24797 | 14.47086 | 34864 ft | 504 kts | 45° |
| 2026-05-03 20:33 | 57.29520 | 14.56673 | 34869 ft | 504 kts | 45° |
| 2026-05-03 20:34 | 57.34233 | 14.66280 | 34867 ft | 504 kts | 45° |
| 2026-05-03 20:34 | 57.38951 | 14.75934 | 34871 ft | 506 kts | 45° |
| 2026-05-03 20:35 | 57.43672 | 14.85639 | 34867 ft | 507 kts | 45° |
| 2026-05-03 20:35 | 57.48386 | 14.95367 | 34866 ft | 507 kts | 45° |
| 2026-05-03 20:36 | 57.53094 | 15.05126 | 34857 ft | 507 kts | 45° |
| 2026-05-03 20:36 | 57.57795 | 15.14907 | 34889 ft | 507 kts | 45° |
| 2026-05-03 20:37 | 57.62495 | 15.24730 | 34846 ft | 507 kts | 45° |
| 2026-05-03 20:37 | 57.67171 | 15.34545 | 34852 ft | 506 kts | 45° |
| 2026-05-03 20:38 | 57.71839 | 15.44382 | 34866 ft | 506 kts | 45° |
| 2026-05-03 20:38 | 57.76502 | 15.54251 | 34859 ft | 505 kts | 45° |
| 2026-05-03 20:39 | 57.81154 | 15.64138 | 34857 ft | 505 kts | 46° |
| 2026-05-03 20:39 | 57.85793 | 15.74040 | 34867 ft | 506 kts | 46° |
| 2026-05-03 20:40 | 57.90429 | 15.83978 | 34863 ft | 505 kts | 46° |
| 2026-05-03 20:40 | 57.95057 | 15.93940 | 34867 ft | 506 kts | 46° |
| 2026-05-03 20:41 | 57.99678 | 16.03930 | 34866 ft | 506 kts | 46° |
| 2026-05-03 20:41 | 58.04297 | 16.13958 | 34866 ft | 507 kts | 45° |
| 2026-05-03 20:42 | 58.08890 | 16.23975 | 34875 ft | 507 kts | 45° |
| 2026-05-03 20:42 | 58.13496 | 16.34061 | 34870 ft | 507 kts | 46° |
| 2026-05-03 20:43 | 58.18097 | 16.44181 | 34871 ft | 507 kts | 46° |
| 2026-05-03 20:43 | 58.22688 | 16.54322 | 34867 ft | 507 kts | 46° |
| 2026-05-03 20:44 | 58.27279 | 16.64508 | 34872 ft | 509 kts | 45° |
| 2026-05-03 20:44 | 58.31876 | 16.74750 | 34873 ft | 509 kts | 46° |
| 2026-05-03 20:45 | 58.36476 | 16.85041 | 33871 ft | 514 kts | 45° |
| 2026-05-03 20:45 | 58.38815 | 16.90295 | 32631 ft | 524 kts | 46° |
| 2026-05-03 20:45 | 58.41151 | 16.95556 | 32053 ft | 518 kts | 46° |
| 2026-05-03 20:45 | 58.43486 | 17.00824 | 30954 ft | 523 kts | 46° |
| 2026-05-03 20:46 | 58.45841 | 17.06149 | 30157 ft | 523 kts | 47° |
| 2026-05-03 20:46 | 58.48188 | 17.11461 | 29035 ft | 526 kts | 47° |
| 2026-05-03 20:46 | 58.50548 | 17.16823 | 28031 ft | 527 kts | 47° |
| 2026-05-03 20:46 | 58.52867 | 17.22102 | 27167 ft | 524 kts | 47° |
| 2026-05-03 20:47 | 58.55217 | 17.27464 | 26069 ft | 527 kts | 47° |
| 2026-05-03 20:47 | 58.57580 | 17.32867 | 25003 ft | 530 kts | 47° |
| 2026-05-03 20:47 | 58.59809 | 17.37974 | 24359 ft | 524 kts | 47° |
| 2026-05-03 20:47 | 58.62027 | 17.43071 | 23758 ft | 518 kts | 47° |
| 2026-05-03 20:48 | 58.64325 | 17.48360 | 23031 ft | 513 kts | 48° |
| 2026-05-03 20:48 | 58.66598 | 17.53602 | 22300 ft | 507 kts | 48° |
| 2026-05-03 20:48 | 58.68840 | 17.58785 | 21637 ft | 502 kts | 47° |
| 2026-05-03 20:48 | 58.71041 | 17.63887 | 20608 ft | 491 kts | 47° |
| 2026-05-03 20:49 | 58.73213 | 17.68931 | 19414 ft | 486 kts | 48° |
| 2026-05-03 20:49 | 58.75352 | 17.73909 | 18337 ft | 478 kts | 48° |
| 2026-05-03 20:49 | 58.77452 | 17.78809 | 17181 ft | 470 kts | 48° |
| 2026-05-03 20:49 | 58.79524 | 17.83622 | 16038 ft | 461 kts | 46° |
| 2026-05-03 20:50 | 58.81852 | 17.87721 | 14966 ft | 448 kts | 32° |
| 2026-05-03 20:50 | 58.84477 | 17.90809 | 13953 ft | 436 kts | 26° |
| 2026-05-03 20:50 | 58.87087 | 17.93534 | 12897 ft | 428 kts | 24° |
| 2026-05-03 20:50 | 58.89714 | 17.96134 | 11848 ft | 420 kts | 23° |
| 2026-05-03 20:51 | 58.92292 | 17.98624 | 11219 ft | 404 kts | 22° |
| 2026-05-03 20:51 | 58.94724 | 18.00943 | 11178 ft | 374 kts | 22° |
| 2026-05-03 20:51 | 58.96981 | 18.03073 | 11164 ft | 347 kts | 21° |
| 2026-05-03 20:51 | 58.99079 | 18.05050 | 11140 ft | 323 kts | 21° |
| 2026-05-03 20:52 | 59.01062 | 18.06922 | 11108 ft | 311 kts | 21° |
| 2026-05-03 20:52 | 59.02983 | 18.08743 | 11027 ft | 305 kts | 21° |
| 2026-05-03 20:52 | 59.04884 | 18.10549 | 10924 ft | 303 kts | 21° |
| 2026-05-03 20:52 | 59.06779 | 18.12351 | 10877 ft | 303 kts | 21° |
| 2026-05-03 20:53 | 59.08673 | 18.14150 | 10871 ft | 303 kts | 20° |
| 2026-05-03 20:53 | 59.10653 | 18.15226 | 10866 ft | 291 kts | 358° |
| 2026-05-03 20:53 | 59.12674 | 18.15472 | 10887 ft | 292 kts | 358° |
| 2026-05-03 20:53 | 59.14703 | 18.15739 | 10880 ft | 292 kts | 358° |
| 2026-05-03 20:54 | 59.16729 | 18.15992 | 10879 ft | 292 kts | 357° |
| 2026-05-03 20:54 | 59.20757 | 18.16480 | 10893 ft | 292 kts | 357° |
| 2026-05-03 20:54 | 59.22782 | 18.16722 | 10886 ft | 291 kts | 357° |
| 2026-05-03 20:55 | 59.24803 | 18.16962 | 10887 ft | 291 kts | 357° |
| 2026-05-03 20:55 | 59.26818 | 18.17200 | 10707 ft | 289 kts | 357° |
| 2026-05-03 20:55 | 59.28824 | 18.17438 | 10289 ft | 289 kts | 357° |
| 2026-05-03 20:55 | 59.30821 | 18.17673 | 9948 ft | 286 kts | 357° |
| 2026-05-03 20:56 | 59.32805 | 18.17908 | 9702 ft | 285 kts | 357° |
| 2026-05-03 20:56 | 59.34784 | 18.18143 | 9503 ft | 285 kts | 357° |
| 2026-05-03 20:56 | 59.36755 | 18.18376 | 9338 ft | 284 kts | 357° |
| 2026-05-03 20:56 | 59.38726 | 18.18611 | 9160 ft | 283 kts | 358° |
| 2026-05-03 20:57 | 59.40691 | 18.18844 | 8984 ft | 282 kts | 358° |
| 2026-05-03 20:57 | 59.42647 | 18.19076 | 8786 ft | 281 kts | 358° |
| 2026-05-03 20:57 | 59.44599 | 18.19308 | 8623 ft | 281 kts | 358° |
| 2026-05-03 20:57 | 59.46548 | 18.19541 | 8444 ft | 280 kts | 358° |
| 2026-05-03 20:58 | 59.48490 | 18.19772 | 8286 ft | 279 kts | 358° |
| 2026-05-03 20:58 | 59.50423 | 18.20003 | 8105 ft | 278 kts | 358° |
| 2026-05-03 20:58 | 59.52346 | 18.20233 | 7920 ft | 276 kts | 359° |
| 2026-05-03 20:58 | 59.53614 | 18.20484 | 7787 ft | 278 kts | 5° |
| 2026-05-03 20:59 | 59.55511 | 18.21220 | 7585 ft | 277 kts | 7° |
| 2026-05-03 20:59 | 59.57399 | 18.21945 | 7409 ft | 276 kts | 6° |
| 2026-05-03 20:59 | 59.59282 | 18.22650 | 7244 ft | 275 kts | 6° |
| 2026-05-03 20:59 | 59.61160 | 18.23340 | 7070 ft | 274 kts | 6° |
| 2026-05-03 21:00 | 59.63035 | 18.24021 | 6887 ft | 273 kts | 6° |
| 2026-05-03 21:00 | 59.64275 | 18.24470 | 6774 ft | 273 kts | 6° |
| 2026-05-03 21:00 | 59.66740 | 18.25360 | 6536 ft | 265 kts | 7° |
| 2026-05-03 21:00 | 59.68533 | 18.26006 | 6371 ft | 259 kts | 7° |
| 2026-05-03 21:01 | 59.70284 | 18.26638 | 6199 ft | 253 kts | 7° |
| 2026-05-03 21:01 | 59.71992 | 18.27255 | 6030 ft | 246 kts | 7° |
| 2026-05-03 21:01 | 59.73673 | 18.27861 | 5879 ft | 246 kts | 7° |
| 2026-05-03 21:01 | 59.75358 | 18.28470 | 5734 ft | 246 kts | 7° |
| 2026-05-03 21:02 | 59.77038 | 18.29079 | 5585 ft | 245 kts | 7° |
| 2026-05-03 21:02 | 59.78713 | 18.29686 | 5429 ft | 244 kts | 7° |
| 2026-05-03 21:02 | 59.80383 | 18.30292 | 5292 ft | 243 kts | 7° |
| 2026-05-03 21:02 | 59.82045 | 18.30896 | 5192 ft | 243 kts | 7° |
| 2026-05-03 21:03 | 59.83710 | 18.31404 | 5064 ft | 240 kts | 356° |
| 2026-05-03 21:03 | 59.85297 | 18.30703 | 4890 ft | 232 kts | 328° |
| 2026-05-03 21:03 | 59.86478 | 18.28647 | 4742 ft | 225 kts | 301° |
| 2026-05-03 21:03 | 59.87046 | 18.25811 | 4614 ft | 221 kts | 276° |
| 2026-05-03 21:04 | 59.86959 | 18.22787 | 4483 ft | 220 kts | 254° |
| 2026-05-03 21:04 | 59.86463 | 18.19913 | 4348 ft | 218 kts | 250° |
| 2026-05-03 21:04 | 59.85945 | 18.17191 | 4238 ft | 209 kts | 249° |
| 2026-05-03 21:04 | 59.85415 | 18.14539 | 4062 ft | 203 kts | 248° |
| 2026-05-03 21:05 | 59.84885 | 18.11965 | 3905 ft | 200 kts | 248° |
| 2026-05-03 21:05 | 59.84349 | 18.09409 | 3769 ft | 200 kts | 247° |
| 2026-05-03 21:05 | 59.83809 | 18.06868 | 3649 ft | 198 kts | 247° |
| 2026-05-03 21:05 | 59.83276 | 18.04382 | 3514 ft | 193 kts | 247° |
| 2026-05-03 21:06 | 59.82752 | 18.01954 | 3387 ft | 190 kts | 246° |
| 2026-05-03 21:06 | 59.82192 | 17.99580 | 3243 ft | 190 kts | 235° |
| 2026-05-03 21:06 | 59.81195 | 17.97944 | 3083 ft | 184 kts | 207° |
| 2026-05-03 21:06 | 59.79982 | 17.97211 | 2864 ft | 181 kts | 194° |
| 2026-05-03 21:07 | 59.78773 | 17.96775 | 2632 ft | 172 kts | 193° |
| 2026-05-03 21:07 | 59.77602 | 17.96356 | 2431 ft | 171 kts | 194° |
| 2026-05-03 21:07 | 59.76437 | 17.95934 | 2208 ft | 169 kts | 193° |
| 2026-05-03 21:07 | 59.75281 | 17.95515 | 1975 ft | 169 kts | 193° |
| 2026-05-03 21:08 | 59.74137 | 17.95099 | 1751 ft | 164 kts | 193° |
| 2026-05-03 21:08 | 59.73043 | 17.94702 | 1532 ft | 153 kts | 192° |
| 2026-05-03 21:08 | 59.72023 | 17.94331 | 1310 ft | 146 kts | 192° |
| 2026-05-03 21:08 | 59.71029 | 17.93969 | 1108 ft | 145 kts | 191° |
| 2026-05-03 21:09 | 59.70037 | 17.93607 | 876 ft | 146 kts | 190° |
| 2026-05-03 21:09 | 59.69036 | 17.93237 | 681 ft | 147 kts | 188° |
| 2026-05-03 21:09 | 59.68028 | 17.92885 | 434 ft | 147 kts | 189° |
| 2026-05-03 21:09 | 59.67023 | 17.92518 | 254 ft | 146 kts | 188° |
| 2026-05-03 21:10 | 59.66042 | 17.92167 | 119 ft | 134 kts | 191° |
| 2026-05-03 21:10 | 59.65274 | 17.91884 | 108 ft | 90 kts | 189° |
| 2026-05-03 21:10 | 59.64812 | 17.91719 | 110 ft | 42 kts | 187° |
| 2026-05-03 21:10 | 59.64589 | 17.91756 | 110 ft | 25 kts | 163° |
| 2026-05-03 21:11 | 59.64501 | 17.91813 | 110 ft | 8 kts | 160° |
| 2026-05-03 21:11 | 59.64452 | 17.91887 | 112 ft | 12 kts | 125° |
| 2026-05-03 21:11 | 59.64400 | 17.92084 | 116 ft | 19 kts | 117° |
| 2026-05-03 21:11 | 59.64355 | 17.92258 | 116 ft | 10 kts | 117° |
| 2026-05-03 21:12 | 59.64360 | 17.92332 | 116 ft | 6 kts | 18° |
| 2026-05-03 21:12 | 59.64376 | 17.92329 | 115 ft | 4 kts | 338° |
| 2026-05-03 21:12 | 59.64390 | 17.92275 | 116 ft | 3 kts | 261° |
| 2026-05-03 21:12 | 59.64381 | 17.92171 | 116 ft | 13 kts | 280° |
| 2026-05-03 21:13 | 59.64472 | 17.92119 | 114 ft | 18 kts | 10° |
| 2026-05-03 21:13 | 59.64612 | 17.92169 | 114 ft | 22 kts | 10° |
| 2026-05-03 21:13 | 59.64716 | 17.92258 | 114 ft | 15 kts | 69° |
| 2026-05-03 21:13 | 59.64699 | 17.92457 | 114 ft | 14 kts | 107° |
| 2026-05-03 21:14 | 59.64673 | 17.92623 | 113 ft | 12 kts | 115° |
| 2026-05-03 21:14 | 59.64668 | 17.92699 | 111 ft | 5 kts | 50° |
| 2026-05-03 21:14 | 59.64693 | 17.92726 | 114 ft | 3 kts | 25° |
| 2026-05-03 21:14 | 59.64699 | 17.92732 | 112 ft | 0 kts | 25° |